Time;durP1;ratioP1;P1;durP2;ratioP2;P2;SDS_P1;SDS_P2;PMS_P1;PMS_P2;Temp;Humidity;BMP_temperature;BMP_pressure;BME280_temperature;BME280_humidity;BME280_pressure;Samples;Min_cycle;Max_cycle;Signal;HPM_P1;HPM_P2
2020/12/01 00:00:32;;;;;;;4.50;1.47;;;8.90;99.90;;;;;;5103240;28;20211;-82
2020/12/01 00:03:02;;;;;;;3.53;1.20;;;8.80;99.90;;;;;;5096599;28;20279;-85
2020/12/01 00:05:32;;;;;;;3.87;1.53;;;8.70;99.90;;;;;;5096601;28;20199;-84
2020/12/01 00:08:02;;;;;;;6.23;1.47;;;8.70;99.90;;;;;;5098133;28;20250;-84
2020/12/01 00:10:34;;;;;;;6.43;1.50;;;8.60;99.90;;;;;;5117488;28;20221;-85
2020/12/01 00:13:07;;;;;;;4.50;1.33;;;8.50;99.90;;;;;;5116170;28;20231;-84
2020/12/01 00:15:37;;;;;;;5.87;1.73;;;8.40;99.90;;;;;;5112722;28;20208;-85
2020/12/01 00:18:07;;;;;;;8.13;1.73;;;8.40;99.90;;;;;;5095116;28;20210;-84
2020/12/01 00:20:36;;;;;;;5.70;1.30;;;8.30;99.90;;;;;;5097009;28;20219;-84
2020/12/01 00:23:06;;;;;;;8.53;1.93;;;8.20;99.90;;;;;;5079293;28;20681;-84
2020/12/01 00:25:36;;;;;;;7.73;1.77;;;8.20;99.90;;;;;;5083209;28;20587;-83
2020/12/01 00:28:07;;;;;;;6.67;1.70;;;8.20;99.90;;;;;;5116749;28;20210;-84
2020/12/01 00:30:36;;;;;;;16.40;1.70;;;8.10;99.90;;;;;;5096313;28;20237;-83
2020/12/01 00:33:07;;;;;;;4.00;1.40;;;8.10;99.90;;;;;;5086312;28;20237;-84
2020/12/01 00:35:38;;;;;;;5.63;1.67;;;8.10;99.90;;;;;;5085332;28;20216;-83
2020/12/01 00:38:10;;;;;;;5.50;1.73;;;8.00;99.90;;;;;;5076126;28;20208;-84
2020/12/01 00:40:40;;;;;;;6.23;1.93;;;7.90;99.90;;;;;;5076292;28;20235;-83
2020/12/01 00:43:12;;;;;;;5.87;1.30;;;7.80;99.90;;;;;;5085195;28;20202;-83
2020/12/01 00:45:44;;;;;;;9.83;1.93;;;7.70;99.90;;;;;;5075795;28;20223;-84
2020/12/01 00:48:16;;;;;;;5.10;2.00;;;7.60;99.90;;;;;;5092508;28;20237;-85
2020/12/01 00:50:47;;;;;;;4.23;1.80;;;7.50;99.90;;;;;;5089263;28;20559;-85
2020/12/01 00:53:17;;;;;;;8.43;2.17;;;7.50;99.90;;;;;;5088039;28;20625;-83
2020/12/01 00:55:48;;;;;;;9.97;2.07;;;7.40;99.90;;;;;;5075181;28;20661;-84
2020/12/01 00:58:20;;;;;;;7.07;2.53;;;7.50;99.90;;;;;;5088048;28;20700;-85
2020/12/01 01:00:50;;;;;;;6.17;2.30;;;7.40;99.90;;;;;;5083882;28;20242;-83
2020/12/01 01:03:20;;;;;;;5.03;1.70;;;7.50;99.90;;;;;;5115608;28;20670;-84
2020/12/01 01:05:50;;;;;;;7.37;2.00;;;7.50;99.90;;;;;;5118893;28;20211;-84
2020/12/01 01:08:21;;;;;;;12.03;2.40;;;7.40;99.90;;;;;;5103362;28;20253;-84
2020/12/01 01:10:50;;;;;;;11.93;3.20;;;7.30;99.90;;;;;;5099560;28;20203;-84
2020/12/01 01:13:21;;;;;;;7.43;2.10;;;7.10;99.90;;;;;;5094647;28;20254;-83
2020/12/01 01:15:52;;;;;;;9.67;2.10;;;7.10;99.90;;;;;;5099176;28;20206;-85
2020/12/01 01:18:22;;;;;;;7.33;1.90;;;7.10;99.90;;;;;;5096246;28;20731;-85
2020/12/01 01:20:52;;;;;;;6.70;2.00;;;7.10;99.90;;;;;;5076892;28;20253;-85
2020/12/01 01:23:23;;;;;;;7.53;1.97;;;7.10;99.90;;;;;;5074248;28;20203;-85
2020/12/01 01:25:53;;;;;;;8.80;2.17;;;7.00;99.90;;;;;;5078869;28;20249;-84
2020/12/01 01:28:24;;;;;;;8.17;2.10;;;6.90;99.90;;;;;;5089881;28;20203;-84
2020/12/01 01:30:54;;;;;;;9.10;2.37;;;6.80;99.90;;;;;;5115661;28;20231;-84
2020/12/01 01:33:24;;;;;;;8.03;1.87;;;6.80;99.90;;;;;;5114220;28;20283;-84
2020/12/01 01:35:56;;;;;;;5.40;2.00;;;6.80;99.90;;;;;;5110036;28;20720;-91
2020/12/01 01:38:27;;;;;;;8.30;2.13;;;6.70;99.90;;;;;;5094973;28;20207;-86
2020/12/01 01:40:59;;;;;;;8.40;1.87;;;6.60;99.90;;;;;;5088546;28;20203;-86
2020/12/01 01:43:31;;;;;;;8.27;2.10;;;6.50;99.90;;;;;;5074806;28;20227;-86
2020/12/01 01:46:01;;;;;;;7.20;1.80;;;6.40;99.90;;;;;;5075015;28;20254;-87
2020/12/01 01:48:33;;;;;;;7.57;2.30;;;6.30;99.90;;;;;;5075326;28;20212;-86
2020/12/01 01:51:06;;;;;;;7.20;2.87;;;6.20;99.90;;;;;;5057466;28;20223;-87
2020/12/01 01:53:41;;;;;;;10.50;2.83;;;6.10;99.90;;;;;;5075332;28;20664;-87
2020/12/01 01:56:16;;;;;;;7.63;2.07;;;6.00;99.90;;;;;;5075550;28;20352;-86
2020/12/01 01:58:50;;;;;;;8.80;2.17;;;5.90;99.90;;;;;;5095777;28;20203;-87
2020/12/01 02:01:25;;;;;;;8.83;2.47;;;5.90;99.90;;;;;;5096310;28;20711;-87
2020/12/01 02:03:56;;;;;;;11.93;2.47;;;5.80;99.90;;;;;;5096098;28;20206;-88
2020/12/01 02:06:29;;;;;;;7.67;1.87;;;5.70;99.90;;;;;;5095561;28;20215;-88
2020/12/01 02:09:03;;;;;;;12.33;2.53;;;5.60;99.90;;;;;;5094059;28;20203;-85
2020/12/01 02:11:36;;;;;;;10.70;3.70;;;5.60;99.90;;;;;;5096385;28;20287;-87
2020/12/01 02:14:12;;;;;;;9.67;3.57;;;5.50;99.90;;;;;;5103333;28;20322;-86
2020/12/01 02:16:48;;;;;;;9.97;3.87;;;5.40;99.90;;;;;;5095233;28;20211;-86
2020/12/01 02:19:22;;;;;;;14.07;3.17;;;5.40;99.90;;;;;;5075384;28;20207;-87
2020/12/01 02:21:52;;;;;;;6.70;2.30;;;5.40;99.90;;;;;;5083141;28;20237;-86
2020/12/01 02:24:26;;;;;;;8.40;2.70;;;5.30;99.90;;;;;;5089721;28;20203;-91
2020/12/01 02:26:59;;;;;;;10.43;3.23;;;5.30;99.90;;;;;;5098001;28;20211;-87
2020/12/01 02:29:32;;;;;;;10.17;3.07;;;5.30;99.90;;;;;;5081976;28;20277;-86
2020/12/01 02:32:05;;;;;;;7.50;2.77;;;5.20;99.90;;;;;;5097059;28;20198;-93
2020/12/01 02:34:39;;;;;;;8.20;2.10;;;5.20;99.90;;;;;;5099407;28;20284;-87
2020/12/01 02:37:10;;;;;;;9.17;2.10;;;5.10;99.90;;;;;;5086204;28;20206;-86
2020/12/01 02:39:40;;;;;;;14.63;2.70;;;5.00;99.90;;;;;;5087245;28;20207;-87
2020/12/01 02:42:15;;;;;;;14.50;2.47;;;5.00;99.90;;;;;;5065956;28;20254;-87
2020/12/01 02:44:47;;;;;;;11.50;2.23;;;5.00;99.90;;;;;;5078861;28;20610;-84
2020/12/01 02:47:18;;;;;;;9.27;2.47;;;5.00;99.90;;;;;;5098803;28;20317;-87
2020/12/01 02:49:48;;;;;;;9.23;2.63;;;4.90;99.90;;;;;;5094479;28;20242;-87
2020/12/01 02:52:20;;;;;;;8.40;2.70;;;4.90;99.90;;;;;;5090389;28;20215;-87
2020/12/01 02:54:50;;;;;;;12.50;3.43;;;4.90;99.90;;;;;;5079884;28;20194;-87
2020/12/01 02:57:22;;;;;;;11.67;2.97;;;4.90;99.90;;;;;;5106825;28;20226;-87
2020/12/01 02:59:52;;;;;;;8.50;2.40;;;4.90;99.90;;;;;;5106998;28;20233;-88
2020/12/01 03:02:23;;;;;;;16.70;3.17;;;5.00;99.90;;;;;;5078343;28;20557;-87
2020/12/01 03:04:53;;;;;;;8.20;3.23;;;5.10;99.90;;;;;;5097459;28;20203;-87
2020/12/01 03:07:23;;;;;;;16.13;5.90;;;5.10;99.90;;;;;;5098546;28;20223;-86
2020/12/01 03:09:53;;;;;;;13.67;5.13;;;5.20;99.90;;;;;;5116109;28;20198;-86
2020/12/01 03:12:25;;;;;;;11.10;4.90;;;5.30;99.90;;;;;;5084550;28;20203;-86
2020/12/01 03:14:56;;;;;;;9.70;2.93;;;5.40;99.90;;;;;;5075756;28;20211;-87
2020/12/01 03:17:26;;;;;;;13.80;2.70;;;5.50;99.90;;;;;;5074550;28;20314;-87
2020/12/01 03:19:57;;;;;;;9.07;3.27;;;5.50;99.90;;;;;;5058891;28;20678;-86
2020/12/01 03:22:27;;;;;;;9.23;2.17;;;5.60;99.90;;;;;;5074800;28;20235;-88
2020/12/01 03:24:58;;;;;;;8.43;2.50;;;5.70;99.90;;;;;;5076116;28;20200;-87
2020/12/01 03:27:30;;;;;;;7.30;2.47;;;5.70;99.90;;;;;;5094588;28;20276;-87
2020/12/01 03:30:06;;;;;;;19.23;3.07;;;5.70;99.90;;;;;;5093689;28;20293;-87
2020/12/01 03:32:37;;;;;;;12.27;3.60;;;5.70;99.90;;;;;;5080810;28;20222;-86
2020/12/01 03:35:08;;;;;;;13.83;3.53;;;5.60;99.90;;;;;;5074434;28;20203;-86
2020/12/01 03:37:38;;;;;;;8.20;3.13;;;5.60;99.90;;;;;;5078224;28;21083;-87
2020/12/01 03:40:11;;;;;;;10.40;3.60;;;5.60;99.90;;;;;;5085045;28;20376;-87
2020/12/01 03:42:43;;;;;;;6.63;3.07;;;5.60;99.90;;;;;;5074011;28;20210;-87
2020/12/01 03:45:13;;;;;;;11.87;3.20;;;5.40;99.90;;;;;;5059403;28;20265;-85
2020/12/01 03:47:44;;;;;;;13.83;3.40;;;5.40;99.90;;;;;;5076436;28;20242;-86
2020/12/01 03:50:14;;;;;;;10.07;3.03;;;5.30;99.90;;;;;;5076631;28;20258;-87
2020/12/01 03:52:44;;;;;;;11.60;3.50;;;5.30;99.90;;;;;;5076256;28;20238;-86
2020/12/01 03:55:17;;;;;;;15.43;3.47;;;5.20;99.90;;;;;;5078575;28;20254;-87
2020/12/01 03:57:49;;;;;;;10.57;3.33;;;5.20;99.90;;;;;;5083271;28;20226;-86
2020/12/01 04:00:22;;;;;;;11.33;3.50;;;5.10;99.90;;;;;;5116201;28;20211;-86
2020/12/01 04:02:53;;;;;;;11.30;3.00;;;5.10;99.90;;;;;;5113820;28;20191;-86
2020/12/01 04:05:25;;;;;;;11.53;3.20;;;5.00;99.90;;;;;;5105655;28;20593;-86
2020/12/01 04:07:57;;;;;;;11.47;2.97;;;5.00;99.90;;;;;;5100620;28;20206;-86
2020/12/01 04:10:28;;;;;;;13.17;3.20;;;4.90;99.90;;;;;;5123384;28;20235;-86
2020/12/01 04:13:00;;;;;;;11.97;3.87;;;4.90;99.90;;;;;;5122649;28;20247;-86
2020/12/01 04:15:29;;;;;;;11.27;3.77;;;4.80;99.90;;;;;;5120735;28;20603;-86
2020/12/01 04:17:59;;;;;;;11.73;3.90;;;4.80;99.90;;;;;;5116996;28;20210;-88
2020/12/01 04:20:29;;;;;;;12.63;3.60;;;4.70;99.90;;;;;;5117978;28;20204;-87
2020/12/01 04:22:59;;;;;;;12.07;3.77;;;4.80;99.90;;;;;;5117566;28;20210;-87
2020/12/01 04:25:30;;;;;;;8.60;3.07;;;4.80;99.90;;;;;;5113570;28;20569;-86
2020/12/01 04:28:05;;;;;;;15.33;4.37;;;4.70;99.90;;;;;;5099317;28;20229;-88
2020/12/01 04:30:36;;;;;;;14.23;4.00;;;4.70;99.90;;;;;;5097090;28;20198;-86
2020/12/01 04:33:07;;;;;;;14.13;3.90;;;4.60;99.90;;;;;;5067561;28;20756;-86
2020/12/01 04:35:38;;;;;;;14.20;3.87;;;4.60;99.90;;;;;;5099325;28;20209;-87
2020/12/01 04:38:08;;;;;;;15.30;4.30;;;4.60;99.90;;;;;;5077742;28;20215;-86
2020/12/01 04:40:40;;;;;;;10.27;3.77;;;4.50;99.90;;;;;;5079920;28;20262;-87
2020/12/01 04:43:19;;;;;;;17.63;3.67;;;4.50;99.90;;;;;;5081099;28;20223;-85
2020/12/01 04:45:52;;;;;;;10.27;3.10;;;4.50;99.90;;;;;;5072652;28;20218;-87
2020/12/01 04:48:37;;;;;;;9.63;3.47;;;4.40;99.90;;;;;;5097821;28;20211;-87
2020/12/01 04:51:22;;;;;;;11.30;3.67;;;4.40;99.90;;;;;;5096602;28;20303;-88
2020/12/01 04:54:19;;;;;;;13.53;3.63;;;4.30;99.90;;;;;;5096198;28;20231;-87
2020/12/01 04:57:32;;;;;;;11.77;3.77;;;4.30;99.90;;;;;;5097366;28;20260;-87
2020/12/01 05:00:24;;;;;;;10.73;3.80;;;4.20;99.90;;;;;;5097413;28;20254;-87
2020/12/01 05:06:55;;;;;;;13.63;3.70;;;4.10;99.90;;;;;;5049544;28;20205;-87
2020/12/01 05:09:38;;;;;;;9.37;4.23;;;4.00;99.90;;;;;;5047103;28;20205;-86
2020/12/01 05:12:13;;;;;;;9.53;2.83;;;4.00;99.90;;;;;;5048685;28;20211;-86
2020/12/01 05:14:49;;;;;;;18.43;3.03;;;4.00;99.90;;;;;;5076851;28;20322;-86
2020/12/01 05:18:01;;;;;;;11.03;2.90;;;4.10;99.90;;;;;;5076149;28;20658;-86
2020/12/01 05:20:35;;;;;;;16.97;3.30;;;4.10;99.90;;;;;;5077126;28;20203;-86
2020/12/01 05:23:06;;;;;;;14.60;3.90;;;4.10;99.90;;;;;;5070501;28;20230;-88
2020/12/01 05:25:37;;;;;;;19.53;5.83;;;4.20;99.90;;;;;;5079305;28;20279;-86
2020/12/01 05:28:11;;;;;;;16.67;5.50;;;4.10;99.90;;;;;;5089753;28;20206;-86
2020/12/01 05:30:42;;;;;;;12.60;4.57;;;4.10;99.90;;;;;;5080500;28;20289;-88
2020/12/01 05:33:24;;;;;;;10.50;4.07;;;4.10;99.90;;;;;;5099229;28;20209;-87
2020/12/01 05:36:21;;;;;;;12.77;3.30;;;4.10;99.90;;;;;;5093095;28;20214;-87
2020/12/01 05:39:01;;;;;;;10.57;3.80;;;4.20;99.90;;;;;;5086870;28;20242;-87
2020/12/01 05:41:34;;;;;;;13.20;4.00;;;4.20;99.90;;;;;;5096730;28;20226;-88
2020/12/01 05:44:17;;;;;;;11.20;3.40;;;4.20;99.90;;;;;;5090060;28;20613;-87
2020/12/01 05:46:54;;;;;;;13.97;3.90;;;4.10;99.90;;;;;;5062645;28;20212;-87
2020/12/01 05:49:37;;;;;;;13.23;3.60;;;4.10;99.90;;;;;;5090556;28;20270;-87
2020/12/01 05:55:20;;;;;;;15.23;3.17;;;4.10;99.90;;;;;;5097398;28;20302;-86
2020/12/01 05:58:05;;;;;;;14.03;3.67;;;4.00;99.90;;;;;;5104551;28;20211;-87
2020/12/01 06:00:37;;;;;;;13.07;3.17;;;4.00;99.90;;;;;;5104107;28;20267;-87
2020/12/01 06:03:31;;;;;;;11.77;3.10;;;4.00;99.90;;;;;;5092339;28;20211;-87
2020/12/01 06:06:07;;;;;;;13.80;3.40;;;4.00;99.90;;;;;;5066573;28;20229;-87
2020/12/01 06:08:48;;;;;;;10.53;2.80;;;4.00;99.90;;;;;;5098681;28;20241;-85
2020/12/01 06:11:36;;;;;;;13.37;3.23;;;4.00;99.90;;;;;;5108732;28;20234;-86
2020/12/01 06:14:17;;;;;;;11.90;3.57;;;4.00;99.90;;;;;;5123650;28;20222;-86
2020/12/01 06:16:52;;;;;;;11.97;3.10;;;3.90;99.90;;;;;;5124257;28;20229;-86
2020/12/01 06:19:33;;;;;;;14.87;3.17;;;3.90;99.90;;;;;;5105419;28;20222;-86
2020/12/01 06:22:52;;;;;;;12.47;3.13;;;3.80;99.90;;;;;;5103501;28;20215;-91
2020/12/01 06:26:10;;;;;;;14.97;3.07;;;4.00;99.90;;;;;;5044649;28;20243;-87
2020/12/01 06:29:03;;;;;;;10.97;2.60;;;4.10;99.90;;;;;;5022641;28;20224;-86
2020/12/01 06:31:56;;;;;;;13.97;3.10;;;4.10;99.90;;;;;;5084761;28;20207;-86
2020/12/01 06:35:03;;;;;;;14.97;3.10;;;4.10;99.90;;;;;;5085467;28;20242;-87
2020/12/01 06:37:55;;;;;;;11.53;2.93;;;4.10;99.90;;;;;;5089407;28;20245;-85
2020/12/01 06:40:38;;;;;;;14.10;3.00;;;4.10;99.90;;;;;;5106383;28;20240;-86
2020/12/01 06:43:14;;;;;;;12.13;2.60;;;4.00;99.90;;;;;;5105870;28;20211;-86
2020/12/01 06:45:51;;;;;;;21.13;2.93;;;4.00;99.90;;;;;;5108409;28;20248;-86
2020/12/01 06:48:26;;;;;;;11.00;2.33;;;4.00;99.90;;;;;;5112950;28;20262;-87
2020/12/01 06:50:59;;;;;;;16.80;3.10;;;3.90;99.90;;;;;;5114012;28;20210;-87
2020/12/01 06:53:32;;;;;;;14.37;2.97;;;3.90;99.90;;;;;;5113861;28;20191;-89
2020/12/01 06:56:17;;;;;;;16.37;2.80;;;4.20;99.90;;;;;;5089987;28;20197;-88
2020/12/01 06:58:48;;;;;;;6.93;2.47;;;4.50;99.90;;;;;;5095171;28;20211;-88
2020/12/01 07:01:33;;;;;;;13.73;3.03;;;4.50;99.90;;;;;;5086793;28;20207;-85
2020/12/01 07:04:24;;;;;;;15.53;2.47;;;4.40;99.90;;;;;;5114457;28;20312;-86
2020/12/01 07:07:00;;;;;;;16.30;2.97;;;4.50;99.90;;;;;;5115297;28;20237;-87
2020/12/01 07:09:33;;;;;;;14.00;2.50;;;4.40;99.90;;;;;;5115067;28;20278;-87
2020/12/01 07:12:21;;;;;;;13.23;2.80;;;4.40;99.90;;;;;;5115231;28;20190;-87
2020/12/01 07:15:00;;;;;;;11.17;3.23;;;4.30;99.90;;;;;;5096741;28;20223;-85
2020/12/01 07:17:55;;;;;;;12.63;3.33;;;4.20;99.90;;;;;;5081091;28;20194;-87
2020/12/01 07:20:44;;;;;;;10.17;2.97;;;4.10;99.90;;;;;;5115067;28;20207;-86
2020/12/01 07:23:29;;;;;;;12.37;3.03;;;4.00;99.90;;;;;;5094900;28;20207;-87
2020/12/01 07:26:05;;;;;;;14.13;2.73;;;4.00;99.90;;;;;;5095977;28;20194;-87
2020/12/01 07:28:43;;;;;;;13.00;2.50;;;4.10;99.90;;;;;;5112330;28;20198;-87
2020/12/01 07:31:26;;;;;;;13.87;2.47;;;4.10;99.90;;;;;;5113272;28;20213;-88
2020/12/01 07:34:01;;;;;;;13.73;2.97;;;4.10;99.90;;;;;;5114840;28;20302;-87
2020/12/01 07:36:38;;;;;;;15.60;3.37;;;4.10;99.90;;;;;;5115724;28;20241;-87
2020/12/01 07:39:15;;;;;;;10.77;2.40;;;4.10;99.90;;;;;;5113744;28;20221;-87
2020/12/01 07:41:49;;;;;;;16.43;2.50;;;4.00;99.90;;;;;;5090943;28;20388;-88
2020/12/01 07:44:23;;;;;;;12.53;2.73;;;4.00;99.90;;;;;;5095396;28;20206;-87
2020/12/01 07:47:06;;;;;;;15.70;2.83;;;4.00;99.90;;;;;;5095550;28;20207;-88
2020/12/01 07:49:38;;;;;;;12.20;2.93;;;4.00;99.90;;;;;;5107783;28;20279;-88
2020/12/01 07:52:21;;;;;;;13.77;2.60;;;4.00;99.90;;;;;;5111914;28;20222;-90
2020/12/01 07:55:02;;;;;;;10.97;2.37;;;3.90;99.90;;;;;;5110806;28;20238;-87
2020/12/01 07:57:33;;;;;;;11.13;2.50;;;4.00;99.90;;;;;;5106615;28;20230;-89
2020/12/01 08:00:07;;;;;;;14.27;2.30;;;3.90;99.90;;;;;;5077349;28;20309;-87
2020/12/01 08:02:38;;;;;;;13.93;2.50;;;4.00;99.90;;;;;;5091380;28;20214;-87
2020/12/01 08:05:14;;;;;;;9.30;2.00;;;4.10;99.90;;;;;;5090776;28;20238;-87
2020/12/01 08:07:56;;;;;;;13.97;3.17;;;4.10;99.90;;;;;;5106968;28;20643;-87
2020/12/01 08:10:30;;;;;;;12.73;2.43;;;4.20;99.90;;;;;;5129740;28;20302;-87
2020/12/01 08:13:05;;;;;;;12.77;3.07;;;4.30;99.90;;;;;;5129389;28;20210;-87
2020/12/01 08:15:37;;;;;;;10.50;2.07;;;4.30;99.90;;;;;;5129217;28;20233;-87
2020/12/01 08:18:13;;;;;;;14.53;3.03;;;4.30;99.90;;;;;;5129604;28;20673;-88
2020/12/01 08:20:44;;;;;;;10.87;2.80;;;4.20;99.90;;;;;;5130250;28;20665;-87
2020/12/01 08:23:23;;;;;;;10.50;3.17;;;4.20;99.90;;;;;;5129390;28;20226;-87
2020/12/01 08:26:01;;;;;;;15.57;2.77;;;4.20;99.90;;;;;;5090263;28;20232;-87
2020/12/01 08:28:39;;;;;;;14.50;2.83;;;4.30;99.90;;;;;;5087991;28;20241;-87
2020/12/01 08:31:25;;;;;;;9.30;2.67;;;4.30;99.90;;;;;;5085846;28;20204;-87
2020/12/01 08:34:05;;;;;;;16.07;3.33;;;4.40;99.90;;;;;;5098155;28;20632;-90
2020/12/01 08:37:04;;;;;;;11.53;2.70;;;4.40;99.90;;;;;;5080029;28;20231;-88
2020/12/01 08:39:50;;;;;;;12.67;2.93;;;4.40;99.90;;;;;;5079780;28;20207;-87
2020/12/01 08:42:29;;;;;;;12.57;2.63;;;4.50;99.90;;;;;;5088107;28;20242;-88
2020/12/01 08:45:26;;;;;;;13.27;2.60;;;4.50;99.90;;;;;;5080367;28;20202;-88
2020/12/01 08:48:02;;;;;;;13.40;3.37;;;4.50;99.90;;;;;;5080663;28;20220;-86
2020/12/01 08:50:37;;;;;;;15.70;2.80;;;4.50;99.90;;;;;;5101396;28;20218;-86
2020/12/01 08:53:12;;;;;;;12.37;3.50;;;4.50;99.90;;;;;;5099419;28;20207;-86
2020/12/01 08:55:51;;;;;;;10.03;2.70;;;4.50;99.90;;;;;;5101108;28;20289;-85
2020/12/01 08:58:36;;;;;;;10.90;2.20;;;4.50;99.90;;;;;;5101532;28;20213;-86
2020/12/01 09:01:10;;;;;;;13.27;2.73;;;4.50;99.90;;;;;;5104604;28;20214;-86
2020/12/01 09:03:56;;;;;;;12.63;3.57;;;4.40;99.90;;;;;;5125781;28;20198;-86
2020/12/01 09:06:32;;;;;;;11.00;2.57;;;4.50;99.90;;;;;;5126354;28;20669;-85
2020/12/01 09:09:13;;;;;;;7.50;2.27;;;4.50;99.90;;;;;;5115022;28;20225;-86
2020/12/01 09:14:50;;;;;;;11.90;2.30;;;4.50;99.90;;;;;;5085441;28;20242;-86
2020/12/01 09:17:27;;;;;;;13.47;2.83;;;4.50;99.90;;;;;;5092213;28;20207;-86
2020/12/01 09:20:21;;;;;;;13.13;2.77;;;4.50;99.90;;;;;;5103800;28;20242;-87
2020/12/01 09:23:03;;;;;;;10.77;2.50;;;4.50;99.90;;;;;;5085039;28;20207;-87
2020/12/01 09:25:39;;;;;;;8.17;1.93;;;4.50;99.90;;;;;;5088553;28;20345;-86
2020/12/01 09:28:15;;;;;;;12.60;2.27;;;4.50;99.90;;;;;;5073035;28;20206;-87
2020/12/01 09:30:46;;;;;;;5.60;1.90;;;4.60;99.90;;;;;;5106869;28;20222;-86
2020/12/01 09:33:22;;;;;;;15.10;3.37;;;4.60;99.90;;;;;;5106567;28;20253;-86
2020/12/01 09:35:54;;;;;;;8.77;2.73;;;4.60;99.90;;;;;;5107053;28;20271;-86
2020/12/01 09:38:25;;;;;;;8.50;2.60;;;4.70;99.90;;;;;;5107112;28;20215;-86
2020/12/01 09:40:55;;;;;;;11.27;2.20;;;4.70;99.90;;;;;;5107678;28;20292;-88
2020/12/01 09:43:30;;;;;;;17.03;2.83;;;4.70;99.90;;;;;;5104937;28;20236;-87
2020/12/01 09:46:06;;;;;;;12.30;2.93;;;4.70;99.90;;;;;;5087634;28;20211;-86
2020/12/01 09:48:39;;;;;;;10.17;2.73;;;4.70;99.90;;;;;;5088179;28;20214;-87
2020/12/01 09:51:13;;;;;;;15.13;3.17;;;4.70;99.90;;;;;;5092316;28;20215;-86
2020/12/01 09:53:52;;;;;;;10.33;2.20;;;4.70;99.90;;;;;;5096501;28;20547;-86
2020/12/01 09:56:43;;;;;;;9.83;2.33;;;4.70;99.90;;;;;;5072135;28;20266;-86
2020/12/01 10:05:17;;;;;;;13.70;3.00;;;4.70;99.90;;;;;;5089051;28;20204;-85
2020/12/01 10:08:01;;;;;;;8.23;2.30;;;4.80;99.90;;;;;;5074471;28;20800;-84
2020/12/01 10:10:51;;;;;;;14.50;3.03;;;4.90;99.90;;;;;;5094009;28;20263;-86
2020/12/01 10:13:40;;;;;;;8.43;2.50;;;4.80;99.90;;;;;;5092522;28;20207;-86
2020/12/01 10:28:09;;;;;;;15.70;2.90;;;4.80;99.90;;;;;;5084439;28;20623;-88
2020/12/01 10:36:05;;;;;;;20.27;2.77;;;4.40;99.90;;;;;;5028590;28;20298;-85
2020/12/01 10:38:36;;;;;;;8.03;2.30;;;4.30;99.90;;;;;;5044371;28;20208;-86
2020/12/01 10:41:09;;;;;;;14.63;3.07;;;4.20;99.90;;;;;;5045328;28;20211;-86
2020/12/01 10:43:40;;;;;;;12.07;2.70;;;4.10;99.90;;;;;;5089170;28;20207;-86
2020/12/01 10:46:11;;;;;;;9.67;2.30;;;4.00;99.90;;;;;;5115233;28;20225;-87
2020/12/01 10:48:43;;;;;;;10.00;3.03;;;3.90;99.90;;;;;;5127362;28;20227;-87
2020/12/01 10:51:13;;;;;;;14.57;3.00;;;3.80;99.90;;;;;;5126932;28;20220;-87
2020/12/01 10:53:44;;;;;;;13.20;2.80;;;3.80;99.90;;;;;;5125719;28;20206;-87
2020/12/01 10:56:17;;;;;;;9.07;2.70;;;3.70;99.90;;;;;;5106036;28;20280;-86
2020/12/01 10:58:48;;;;;;;13.40;3.57;;;3.60;99.90;;;;;;5105668;28;20216;-87
2020/12/01 11:01:19;;;;;;;9.90;2.83;;;3.60;99.90;;;;;;5105685;28;20252;-87
2020/12/01 11:03:50;;;;;;;11.10;2.73;;;3.50;99.90;;;;;;5113474;28;20218;-87
2020/12/01 11:06:21;;;;;;;12.47;3.23;;;3.50;99.90;;;;;;5126114;28;20293;-85
2020/12/01 11:08:53;;;;;;;15.87;3.20;;;3.40;99.90;;;;;;5129242;28;20210;-87
2020/12/01 11:11:26;;;;;;;8.00;2.77;;;3.30;99.90;;;;;;5111628;28;20265;-86
2020/12/01 11:13:57;;;;;;;8.63;3.27;;;3.30;99.90;;;;;;5108679;28;20248;-86
2020/12/01 11:16:27;;;;;;;10.80;2.83;;;3.30;99.90;;;;;;5095805;28;20257;-87
2020/12/01 11:18:57;;;;;;;10.90;3.27;;;3.20;99.90;;;;;;5104416;28;20211;-86
2020/12/01 11:21:28;;;;;;;12.13;2.80;;;3.20;99.90;;;;;;5109053;28;20207;-87
2020/12/01 11:24:02;;;;;;;9.00;2.60;;;3.20;99.90;;;;;;5108149;28;20213;-86
2020/12/01 11:26:34;;;;;;;14.70;2.80;;;3.20;99.90;;;;;;5109909;28;20210;-87
2020/12/01 11:29:05;;;;;;;10.10;2.77;;;3.10;99.90;;;;;;5108690;28;20221;-87
2020/12/01 11:31:38;;;;;;;12.10;2.20;;;3.10;99.90;;;;;;5107377;28;20232;-86
2020/12/01 11:34:11;;;;;;;14.53;3.40;;;3.10;99.90;;;;;;5087304;28;20215;-85
2020/12/01 11:36:42;;;;;;;11.97;2.90;;;3.10;99.90;;;;;;5088757;28;20237;-86
2020/12/01 11:39:17;;;;;;;9.43;3.03;;;3.10;99.90;;;;;;5102699;28;20346;-86
2020/12/01 11:41:51;;;;;;;9.47;2.70;;;3.10;99.90;;;;;;5109129;28;20212;-86
2020/12/01 11:44:21;;;;;;;11.50;3.00;;;3.10;99.90;;;;;;5108824;28;20213;-86
2020/12/01 11:46:52;;;;;;;9.90;3.33;;;3.10;99.90;;;;;;5109038;28;20214;-87
2020/12/01 11:49:22;;;;;;;10.43;2.37;;;3.10;99.90;;;;;;5108763;28;20213;-87
2020/12/01 11:51:53;;;;;;;9.87;2.50;;;3.00;99.90;;;;;;5109430;28;20213;-87
2020/12/01 11:54:24;;;;;;;8.47;3.00;;;3.10;99.90;;;;;;5108056;28;20322;-87
2020/12/01 11:56:58;;;;;;;9.77;2.90;;;3.10;99.90;;;;;;5109381;28;20260;-87
2020/12/01 11:59:31;;;;;;;9.77;3.23;;;3.10;99.90;;;;;;5108501;28;20214;-87
2020/12/01 12:02:02;;;;;;;8.93;2.43;;;3.00;99.90;;;;;;5109931;28;20203;-87
2020/12/01 12:04:33;;;;;;;8.83;2.63;;;3.00;99.90;;;;;;5109919;28;20211;-87
2020/12/01 12:07:05;;;;;;;11.43;2.53;;;2.90;99.90;;;;;;5127071;28;20202;-87
2020/12/01 12:09:37;;;;;;;8.10;2.97;;;3.00;99.90;;;;;;5128197;28;20222;-86
2020/12/01 12:12:09;;;;;;;12.50;3.03;;;3.00;99.90;;;;;;5127561;28;20209;-88
2020/12/01 12:14:40;;;;;;;10.20;2.13;;;3.00;99.90;;;;;;5127919;28;20254;-86
2020/12/01 12:17:11;;;;;;;11.33;2.53;;;3.00;99.90;;;;;;5128176;28;20217;-87
2020/12/01 12:19:41;;;;;;;9.63;2.30;;;3.10;99.90;;;;;;5107507;28;20207;-87
2020/12/01 12:22:14;;;;;;;12.67;2.53;;;3.10;99.90;;;;;;5108342;28;20191;-88
2020/12/01 12:24:46;;;;;;;10.63;2.27;;;3.20;99.90;;;;;;5111599;28;20213;-87
2020/12/01 12:27:19;;;;;;;11.30;2.53;;;3.20;99.90;;;;;;5131423;28;20209;-86
2020/12/01 12:29:50;;;;;;;8.87;2.50;;;3.30;99.90;;;;;;5128748;28;20245;-88
2020/12/01 12:32:21;;;;;;;14.40;3.10;;;3.40;99.90;;;;;;5116253;28;20225;-87
2020/12/01 12:34:51;;;;;;;14.63;3.17;;;3.40;99.90;;;;;;5110465;28;20229;-86
2020/12/01 12:37:22;;;;;;;11.37;2.63;;;3.50;99.90;;;;;;5098653;28;20250;-87
2020/12/01 12:39:53;;;;;;;12.83;2.37;;;3.60;99.90;;;;;;5110217;28;20221;-87
2020/12/01 12:42:25;;;;;;;13.07;2.73;;;3.60;99.90;;;;;;5128288;28;20259;-86
2020/12/01 12:44:56;;;;;;;11.97;2.87;;;3.70;99.90;;;;;;5130279;28;20234;-87
2020/12/01 12:47:27;;;;;;;8.07;2.20;;;3.70;99.90;;;;;;5129343;28;20218;-87
2020/12/01 12:49:58;;;;;;;9.07;2.03;;;3.70;99.90;;;;;;5112537;28;20234;-87
2020/12/01 12:52:29;;;;;;;16.90;2.57;;;3.70;99.90;;;;;;5093526;28;20287;-87
2020/12/01 12:55:01;;;;;;;8.77;2.27;;;3.70;99.90;;;;;;5107786;28;20248;-86
2020/12/01 12:57:32;;;;;;;11.40;2.13;;;3.80;99.90;;;;;;5108245;28;20219;-87
2020/12/01 13:00:05;;;;;;;7.93;2.40;;;3.80;99.90;;;;;;5107924;28;20253;-86
2020/12/01 13:02:36;;;;;;;11.97;2.17;;;3.80;99.90;;;;;;5107445;28;20215;-87
2020/12/01 13:05:07;;;;;;;12.57;2.43;;;3.90;99.90;;;;;;5108009;28;20236;-87
2020/12/01 13:07:55;;;;;;;7.33;2.13;;;3.90;99.90;;;;;;5104706;28;20204;-87
2020/12/01 13:10:26;;;;;;;10.27;2.53;;;3.90;99.90;;;;;;5084545;28;20207;-86
2020/12/01 13:12:59;;;;;;;11.07;2.17;;;3.90;99.90;;;;;;5106974;28;20207;-86
2020/12/01 13:15:31;;;;;;;12.43;2.33;;;4.00;99.90;;;;;;5108468;28;20269;-86
2020/12/01 13:18:04;;;;;;;11.47;2.20;;;4.10;99.90;;;;;;5077171;28;20221;-86
2020/12/01 13:20:35;;;;;;;12.53;2.50;;;4.10;99.90;;;;;;5088991;28;20214;-87
2020/12/01 13:23:07;;;;;;;8.97;1.90;;;4.10;99.90;;;;;;5107114;28;20231;-86
2020/12/01 13:25:37;;;;;;;8.23;2.30;;;4.20;99.90;;;;;;5117632;28;20243;-86
2020/12/01 13:28:09;;;;;;;13.70;2.93;;;4.20;99.90;;;;;;5110031;28;20218;-86
2020/12/01 13:30:40;;;;;;;13.27;2.40;;;4.30;99.90;;;;;;5128761;28;20214;-86
2020/12/01 13:33:12;;;;;;;11.43;2.57;;;4.30;99.90;;;;;;5126811;28;20304;-86
2020/12/01 13:35:43;;;;;;;10.37;2.33;;;4.30;99.90;;;;;;5068875;28;20257;-86
2020/12/01 13:38:15;;;;;;;11.17;2.50;;;4.40;99.90;;;;;;5068678;28;20211;-84
2020/12/01 13:40:46;;;;;;;7.33;2.40;;;4.40;99.90;;;;;;5086510;28;20233;-86
2020/12/01 13:43:18;;;;;;;10.50;2.77;;;4.50;99.90;;;;;;5071623;28;20214;-85
2020/12/01 13:45:50;;;;;;;10.17;2.53;;;4.50;99.90;;;;;;5127594;28;20203;-86
2020/12/01 13:48:23;;;;;;;10.40;2.53;;;4.50;99.90;;;;;;5127161;28;20214;-86
2020/12/01 13:50:53;;;;;;;16.80;2.93;;;4.50;99.90;;;;;;5126873;28;20202;-85
2020/12/01 13:53:23;;;;;;;10.40;2.70;;;4.50;99.90;;;;;;5086090;28;20222;-86
2020/12/01 13:55:54;;;;;;;11.57;2.53;;;4.60;99.90;;;;;;5069198;28;20235;-86
2020/12/01 13:58:27;;;;;;;7.27;2.37;;;4.60;99.90;;;;;;5086879;28;20252;-87
2020/12/01 14:01:10;;;;;;;12.00;2.63;;;4.70;99.90;;;;;;5095073;28;20210;-90
2020/12/01 14:03:42;;;;;;;11.37;2.87;;;4.60;99.90;;;;;;5100186;28;20214;-86